Time;durP1;ratioP1;P1;durP2;ratioP2;P2;SDS_P1;SDS_P2;PMS_P1;PMS_P2;Temp;Humidity;BMP_temperature;BMP_pressure;BME280_temperature;BME280_humidity;BME280_pressure;Samples;Min_cycle;Max_cycle;Signal;HPM_P1;HPM_P2
2021/11/26 09:31:56;;;;;;;47.80;25.25;;;;;;;3.37;76.03;99130.13;5934357;23;20039;31
2021/11/26 09:34:21;;;;;;;48.97;24.50;;;;;;;3.30;76.91;99143.13;4895497;29;20081;-37
2021/11/26 09:36:47;;;;;;;46.30;23.67;;;;;;;3.32;76.41;99137.69;4896524;29;20025;-37
2021/11/26 09:39:12;;;;;;;49.45;23.95;;;;;;;3.36;76.12;99136.34;4896993;29;20036;-37
2021/11/26 09:41:38;;;;;;;45.25;23.10;;;;;;;3.21;76.66;99132.81;4896886;29;20025;-38
2021/11/26 09:44:04;;;;;;;47.33;22.90;;;;;;;3.43;75.89;99152.28;4896504;29;20401;-38
2021/11/26 09:46:33;;;;;;;42.65;23.27;;;;;;;3.46;75.99;99172.97;4896476;29;20402;-38
2021/11/26 09:48:59;;;;;;;46.67;23.65;;;;;;;3.50;75.92;99164.56;4880155;29;20021;-38
2021/11/26 09:51:24;;;;;;;46.78;23.73;;;;;;;3.42;76.19;99130.41;4879414;29;20028;-38
2021/11/26 09:53:50;;;;;;;50.30;22.63;;;;;;;3.21;77.15;99122.28;4896082;29;20021;-39
2021/11/26 09:56:15;;;;;;;42.95;23.50;;;;;;;3.43;76.95;99126.78;4896283;29;20020;-38
2021/11/26 09:58:41;;;;;;;43.03;21.90;;;;;;;3.35;77.04;99115.47;4895679;29;20040;-38
2021/11/26 10:01:07;;;;;;;48.63;23.25;;;;;;;3.30;76.73;99089.69;4895895;29;20021;-39
2021/11/26 10:03:37;;;;;;;46.67;22.48;;;;;;;3.25;77.24;99070.97;4895608;29;20039;-38
2021/11/26 10:06:02;;;;;;;45.67;22.13;;;;;;;3.15;77.33;99058.06;4896437;29;20024;-38
2021/11/26 10:08:28;;;;;;;44.38;21.98;;;;;;;3.31;77.03;99072.91;4896052;29;20092;-38
2021/11/26 10:10:58;;;;;;;42.83;21.95;;;;;;;3.36;77.79;99103.97;4896010;29;20036;-37
2021/11/26 10:13:23;;;;;;;;;;;;;;;3.50;77.11;99117.22;4879678;29;20025;-38
2021/11/26 10:15:53;;;;;;;43.22;21.67;;;;;;;3.65;76.96;99117.28;4895547;29;19911;-39
2021/11/26 10:18:26;;;;;;;39.92;18.98;;;;;;;3.56;76.30;99081.50;4896204;29;20481;-38
2021/11/26 10:21:02;;;;;;;36.70;19.35;;;;;;;3.54;76.30;99046.63;4894370;29;20025;-38
2021/11/26 10:23:43;;;;;;;40.15;20.13;;;;;;;3.63;76.25;99036.88;4896042;29;20029;-38
2021/11/26 10:26:17;;;;;;;31.15;16.77;;;;;;;3.33;77.16;99034.94;4895457;29;20520;-38
2021/11/26 10:28:45;;;;;;;28.00;15.27;;;;;;;3.48;76.90;99018.41;4878631;29;20048;-37
2021/11/26 10:31:31;;;;;;;33.00;16.40;;;;;;;3.39;76.59;99016.81;4895692;29;20028;-37
2021/11/26 10:33:58;;;;;;;33.45;16.42;;;;;;;3.39;76.49;99017.66;4895474;29;20048;-37
2021/11/26 10:36:25;;;;;;;30.98;16.67;;;;;;;3.57;76.66;99035.78;4895493;29;20413;-37
2021/11/26 10:38:51;;;;;;;32.05;15.73;;;;;;;3.86;75.08;98997.38;4895418;29;20051;-38
2021/11/26 10:41:22;;;;;;;30.38;15.90;;;;;;;3.64;75.74;99001.69;4878468;29;20060;-38
2021/11/26 10:58:04;;;;;;;35.08;16.10;;;;;;;3.66;75.72;99004.97;4895176;29;20035;-38
2021/11/26 11:00:10;;;;;;;31.42;16.60;;;;;;;3.50;76.27;98977.78;4886150;29;20051;-37
2021/11/26 11:02:41;;;;;;;32.60;17.27;;;;;;;3.61;76.05;98954.66;4878080;29;20041;-37
2021/11/26 11:05:30;;;;;;;36.78;17.92;;;;;;;3.66;76.02;98961.03;4878693;29;20031;-37
2021/11/26 11:07:56;;;;;;;34.30;17.45;;;;;;;3.83;75.90;98961.72;4894517;29;20072;-38
2021/11/26 11:10:26;;;;;;;37.20;17.98;;;;;;;3.80;75.78;98956.78;4894874;29;20051;-38
2021/11/26 11:12:51;;;;;;;45.08;19.15;;;;;;;3.71;76.51;98944.69;4894929;29;20568;-39
2021/11/26 11:15:18;;;;;;;39.50;19.27;;;;;;;3.73;77.23;98953.22;4894308;29;20044;-38
2021/11/26 11:17:46;;;;;;;35.35;19.40;;;;;;;3.94;75.42;98949.94;4877703;29;20032;-37
2021/11/26 11:20:13;;;;;;;39.83;19.33;;;;;;;3.84;75.88;98944.91;4877495;29;20035;-38
2021/11/26 11:22:39;;;;;;;32.92;18.08;;;;;;;3.84;75.73;98954.63;4878802;29;20028;-38
2021/11/26 11:25:05;;;;;;;33.95;18.80;;;;;;;3.96;76.42;98939.19;4893907;29;20113;-37
2021/11/26 11:27:31;;;;;;;38.33;17.50;;;;;;;4.09;75.28;98923.59;4894267;29;20398;-38
2021/11/26 11:29:57;;;;;;;40.25;18.63;;;;;;;4.03;75.86;98929.59;4894703;29;20040;-38
2021/11/26 11:32:24;;;;;;;36.42;18.45;;;;;;;4.05;75.56;98924.97;4894472;29;20064;-38
2021/11/26 11:34:49;;;;;;;38.60;19.25;;;;;;;3.88;76.30;98914.63;4894850;29;20039;-38
2021/11/26 11:37:18;;;;;;;38.22;19.73;;;;;;;3.89;76.39;98908.34;4859330;29;20490;-37
2021/11/26 11:39:51;;;;;;;36.83;17.30;;;;;;;3.95;76.80;98921.78;4887450;29;20040;-38
2021/11/26 11:42:29;;;;;;;39.10;19.40;;;;;;;4.17;76.58;98923.53;4894541;29;20051;-38
2021/11/26 11:44:56;;;;;;;31.92;18.60;;;;;;;4.08;76.34;98935.13;4894561;29;20405;-37
2021/11/26 11:47:24;;;;;;;37.75;19.45;;;;;;;3.89;77.78;98910.97;4894538;29;20024;-39
2021/11/26 11:49:49;;;;;;;35.22;19.25;;;;;;;4.13;77.18;98913.53;4894868;29;20024;-37
2021/11/26 11:52:15;;;;;;;39.30;19.20;;;;;;;4.31;76.13;98896.34;4895045;29;20037;-37
2021/11/26 11:54:42;;;;;;;41.15;19.30;;;;;;;3.92;78.28;98908.00;4894720;29;20028;-38
2021/11/26 11:57:08;;;;;;;32.67;19.45;;;;;;;4.25;77.07;98894.44;4895453;29;20063;-38
2021/11/26 11:59:37;;;;;;;35.42;18.77;;;;;;;4.06;77.06;98881.84;4878283;29;20473;-38
2021/11/26 12:02:07;;;;;;;33.45;18.77;;;;;;;4.29;76.33;98900.97;4878632;29;20038;-38
2021/11/26 12:04:42;;;;;;;35.67;19.85;;;;;;;4.61;75.62;98882.31;4895164;29;20033;-37
2021/11/26 12:07:08;;;;;;;40.63;20.52;;;;;;;4.74;75.69;98897.44;4894850;29;20043;-38
2021/11/26 12:09:33;;;;;;;34.03;19.65;;;;;;;4.83;74.80;98881.31;4894930;29;20028;-38
2021/11/26 12:12:06;;;;;;;41.47;20.33;;;;;;;4.53;75.45;98856.88;4887300;29;20407;-38
2021/11/26 12:14:31;;;;;;;38.83;19.67;;;;;;;4.30;76.72;98873.66;4883963;29;20024;-38
2021/11/26 12:17:15;;;;;;;39.50;19.52;;;;;;;4.25;76.71;98883.91;4885603;29;20084;-38
2021/11/26 12:19:41;;;;;;;45.63;21.80;;;;;;;4.45;76.60;98870.16;4887179;29;20438;-38
2021/11/26 12:22:14;;;;;;;40.83;20.30;;;;;;;4.52;75.45;98868.41;4886609;29;20024;-38
2021/11/26 12:24:42;;;;;;;41.67;19.92;;;;;;;4.63;75.19;98867.13;4883956;29;20458;-38
2021/11/26 12:27:08;;;;;;;45.63;21.23;;;;;;;4.56;75.55;98866.25;4868799;29;20032;-38
2021/11/26 12:29:41;;;;;;;44.92;20.30;;;;;;;4.78;74.77;98859.16;4867166;29;20021;-38
2021/11/26 12:32:12;;;;;;;40.95;20.95;;;;;;;4.70;74.59;98870.63;4885207;29;20028;-37
2021/11/26 12:34:43;;;;;;;42.70;20.23;;;;;;;4.70;74.95;98855.66;4884850;29;20053;-38
2021/11/26 12:37:28;;;;;;;34.00;18.23;;;;;;;4.54;75.52;98845.34;4887270;29;20032;-38
2021/11/26 12:39:55;;;;;;;36.88;20.17;;;;;;;4.70;75.29;98841.63;4885665;29;20568;-37
2021/11/26 12:42:21;;;;;;;33.85;19.48;;;;;;;4.48;75.86;98822.38;4876325;29;20034;-38
2021/11/26 12:45:16;;;;;;;37.88;20.98;;;;;;;4.41;75.99;98814.38;4875585;29;20112;-38
2021/11/26 12:48:08;;;;;;;43.63;23.25;;;;;;;4.63;74.80;98791.50;4875633;29;20036;-38
2021/11/26 12:53:20;;;;;;;47.15;23.20;;;;;;;4.43;75.73;98728.06;4883991;29;20044;-39
2021/11/26 12:55:59;;;;;;;38.75;21.50;;;;;;;4.44;75.55;98781.59;4890242;29;20115;-37
2021/11/26 12:58:25;;;;;;;47.03;22.83;;;;;;;4.45;75.77;98799.03;4891759;29;20596;-37
2021/11/26 13:00:58;;;;;;;38.75;21.73;;;;;;;4.53;75.86;98791.00;4884460;29;20134;-37
2021/11/26 13:03:24;;;;;;;39.42;20.55;;;;;;;4.49;76.10;98756.31;4888589;29;20040;-37
2021/11/26 13:05:57;;;;;;;42.28;22.30;;;;;;;4.65;75.98;98722.81;4890111;29;20024;-38
2021/11/26 13:08:23;;;;;;;40.70;21.73;;;;;;;4.53;76.11;98735.66;4887182;29;20080;-37
2021/11/26 13:10:49;;;;;;;38.08;20.40;;;;;;;4.45;76.72;98730.53;4883125;29;20033;-37
2021/11/26 13:13:14;;;;;;;42.83;20.67;;;;;;;4.57;76.28;98738.72;4861821;29;20020;-38
2021/11/26 13:15:40;;;;;;;39.40;20.92;;;;;;;4.57;76.35;98765.91;4878771;29;20036;-37
2021/11/26 13:18:09;;;;;;;44.95;21.42;;;;;;;4.57;75.93;98749.28;4878591;29;20033;-37
2021/11/26 13:20:35;;;;;;;44.50;23.00;;;;;;;4.53;76.68;98740.13;4878426;29;20057;-38
2021/11/26 13:23:13;;;;;;;40.25;21.30;;;;;;;4.50;77.12;98738.69;4878488;29;20025;-38
2021/11/26 13:25:40;;;;;;;42.15;22.08;;;;;;;4.54;76.29;98704.88;4878459;29;20031;-38
2021/11/26 13:28:09;;;;;;;45.20;23.98;;;;;;;4.51;76.36;98674.44;4878442;29;20092;-38
2021/11/26 13:30:34;;;;;;;40.63;21.63;;;;;;;4.84;75.60;98687.88;4878349;29;20031;-39
2021/11/26 13:33:04;;;;;;;41.08;20.88;;;;;;;5.33;73.81;98709.91;4878742;29;20053;-38
2021/11/26 13:35:29;;;;;;;;;;;;;;;5.02;74.58;98723.50;4884534;29;20028;-38
2021/11/26 13:37:56;;;;;;;48.30;21.83;;;;;;;4.84;75.39;98726.63;4897194;29;20356;-38
2021/11/26 13:40:22;;;;;;;42.20;21.70;;;;;;;4.92;75.06;98721.19;4896858;29;20033;-37
2021/11/26 13:42:58;;;;;;;43.17;23.00;;;;;;;4.75;75.84;98719.84;4879792;29;20036;-37
2021/11/26 13:45:49;;;;;;;48.00;24.48;;;;;;;4.87;75.87;98750.78;4896438;29;20099;-38
2021/11/26 13:48:15;;;;;;;46.88;22.58;;;;;;;4.93;75.57;98762.38;4875250;29;20041;-38
2021/11/26 13:50:40;;;;;;;42.78;22.42;;;;;;;4.81;76.08;98745.44;4879263;29;20099;-38
2021/11/26 13:53:06;;;;;;;39.85;21.42;;;;;;;5.17;74.78;98761.13;4878583;29;20035;-38
2021/11/26 13:55:32;;;;;;;38.67;21.45;;;;;;;5.13;75.04;98764.34;4862769;29;20036;-38
2021/11/26 13:58:14;;;;;;;41.70;21.90;;;;;;;5.22;74.44;98763.19;4896252;29;20028;-39
2021/11/26 14:00:53;;;;;;;44.53;21.73;;;;;;;5.19;74.64;98759.09;4896599;29;20035;-38
2021/11/26 14:03:29;;;;;;;44.28;22.52;;;;;;;5.26;74.72;98746.78;4896011;29;20533;-39
2021/11/26 14:05:54;;;;;;;44.90;23.70;;;;;;;5.62;73.06;98755.53;4896583;29;20075;-38
2021/11/26 14:08:20;;;;;;;45.80;22.55;;;;;;;5.45;73.48;98747.91;4875711;29;20447;-38
2021/11/26 14:10:46;;;;;;;44.08;23.52;;;;;;;5.32;74.45;98737.28;4877831;29;20021;-38
2021/11/26 14:13:12;;;;;;;48.35;23.67;;;;;;;5.37;73.63;98726.13;4877592;29;20044;-38
2021/11/26 14:15:37;;;;;;;48.72;23.42;;;;;;;5.31;74.30;98732.19;4877531;29;20043;-38
2021/11/26 14:18:13;;;;;;;45.25;24.27;;;;;;;5.30;73.98;98723.47;4877185;29;20037;-38
2021/11/26 14:20:39;;;;;;;45.53;23.80;;;;;;;5.48;73.66;98705.31;4877360;29;20040;-37
2021/11/26 14:23:14;;;;;;;46.17;23.65;;;;;;;5.30;74.33;98686.53;4860595;29;20108;-37
2021/11/26 14:25:40;;;;;;;46.95;24.63;;;;;;;5.62;72.89;98677.13;4877292;29;20061;-37
2021/11/26 14:28:14;;;;;;;41.08;22.95;;;;;;;5.37;73.92;98678.63;4877201;29;20021;-38
2021/11/26 14:30:39;;;;;;;42.45;22.38;;;;;;;5.45;73.94;98683.78;4877101;29;20431;-38
2021/11/26 14:33:07;;;;;;;43.55;22.50;;;;;;;5.54;73.67;98668.56;4877340;29;20056;-37
2021/11/26 14:35:38;;;;;;;43.28;23.15;;;;;;;5.34;74.01;98650.03;4866710;29;20028;-38
2021/11/26 14:38:16;;;;;;;53.50;26.77;;;;;;;5.46;73.63;98649.28;4879469;29;20120;-38
2021/11/26 14:40:42;;;;;;;48.97;25.42;;;;;;;5.41;73.62;98643.75;4896402;29;20051;-38
2021/11/26 14:43:15;;;;;;;48.30;25.60;;;;;;;5.24;74.07;98677.56;4879403;29;20405;-39
2021/11/26 14:45:47;;;;;;;50.40;25.67;;;;;;;5.09;74.85;98697.97;4895910;29;20541;-41
2021/11/26 14:48:18;;;;;;;47.80;24.40;;;;;;;4.98;74.75;98703.78;4896034;29;20029;-38
2021/11/26 14:50:44;;;;;;;47.17;25.50;;;;;;;5.15;74.03;98701.66;4895961;29;20036;-39
2021/11/26 14:53:14;;;;;;;50.25;24.98;;;;;;;5.04;75.09;98689.81;4895846;29;20017;-39
2021/11/26 14:55:40;;;;;;;47.58;25.00;;;;;;;5.06;74.58;98675.47;4895947;29;20028;-38
2021/11/26 14:58:05;;;;;;;53.15;27.33;;;;;;;5.06;74.59;98662.28;4895602;29;20044;-39
2021/11/26 15:00:31;;;;;;;54.13;27.15;;;;;;;5.04;74.64;98645.81;4895674;29;20481;-40
2021/11/26 15:02:58;;;;;;;60.05;29.88;;;;;;;4.85;74.77;98635.97;4878744;29;20373;-39
2021/11/26 15:05:23;;;;;;;56.13;29.48;;;;;;;4.83;75.10;98615.06;4895586;29;20033;-38
2021/11/26 15:07:49;;;;;;;51.50;25.65;;;;;;;4.83;74.92;98622.16;4894830;29;20099;-39
2021/11/26 15:10:14;;;;;;;45.10;25.55;;;;;;;4.81;74.43;98603.91;4895535;29;20035;-38
2021/11/26 15:12:40;;;;;;;54.67;28.58;;;;;;;4.80;76.76;98614.66;4894993;29;20419;-38
2021/11/26 15:15:06;;;;;;;53.67;26.42;;;;;;;4.68;76.99;98603.81;4894073;29;20037;-37
2021/11/26 15:17:31;;;;;;;52.08;25.95;;;;;;;4.92;74.92;98610.47;4895028;29;20044;-38
2021/11/26 15:19:57;;;;;;;49.60;26.05;;;;;;;4.88;76.17;98594.22;4895363;29;20461;-41
2021/11/26 15:22:22;;;;;;;51.03;26.77;;;;;;;5.11;75.30;98594.94;4895149;29;20036;-37
2021/11/26 15:24:48;;;;;;;52.03;25.63;;;;;;;4.86;75.93;98630.50;4895095;29;20096;-39
2021/11/26 15:27:13;;;;;;;45.63;25.77;;;;;;;4.60;75.44;98644.31;4894896;29;20036;-38
2021/11/26 15:29:40;;;;;;;51.75;26.65;;;;;;;4.69;76.61;98645.00;4895033;29;20130;-38
2021/11/26 15:32:06;;;;;;;51.20;26.92;;;;;;;4.50;77.24;98636.75;4894520;29;20079;-40
2021/11/26 15:34:31;;;;;;;54.40;27.88;;;;;;;4.66;76.59;98645.38;4895163;29;20056;-37
2021/11/26 15:36:57;;;;;;;50.72;27.20;;;;;;;4.48;76.63;98659.81;4894719;29;20032;-38
2021/11/26 15:39:22;;;;;;;53.53;26.58;;;;;;;4.64;75.88;98650.81;4894497;29;20558;-38
2021/11/26 15:41:48;;;;;;;53.15;26.95;;;;;;;4.54;76.33;98624.00;4894478;29;20032;-38
2021/11/26 15:44:15;;;;;;;53.25;26.23;;;;;;;4.59;75.90;98626.03;4894752;29;20037;-38
2021/11/26 15:46:41;;;;;;;55.85;28.60;;;;;;;4.47;76.71;98629.22;4892507;29;20391;-36
2021/11/26 15:49:06;;;;;;;61.50;27.40;;;;;;;4.45;76.69;98631.22;4882072;29;20035;-38
2021/11/26 15:51:32;;;;;;;59.00;28.45;;;;;;;4.34;76.77;98623.88;4889114;29;20413;-37
2021/11/26 15:53:57;;;;;;;68.80;30.13;;;;;;;4.31;77.09;98605.78;4881567;29;20027;-38
2021/11/26 15:56:24;;;;;;;59.38;29.23;;;;;;;4.19;78.26;98602.88;4893510;29;20021;-37
2021/11/26 15:58:50;;;;;;;58.55;28.60;;;;;;;4.17;77.58;98604.03;4878370;29;20029;-38
2021/11/26 16:01:16;;;;;;;61.40;29.10;;;;;;;4.36;77.05;98618.38;4883664;29;20043;-38
2021/11/26 16:03:42;;;;;;;62.45;29.23;;;;;;;3.91;79.01;98613.34;4895426;29;20545;-37
2021/11/26 16:06:07;;;;;;;63.63;30.60;;;;;;;4.20;77.93;98603.69;4895264;29;20103;-36
2021/11/26 16:08:33;;;;;;;69.75;32.97;;;;;;;4.32;77.43;98599.50;4895256;29;20067;-39
2021/11/26 16:10:59;;;;;;;72.45;33.97;;;;;;;4.16;78.40;98595.34;4894979;29;20134;-39
2021/11/26 16:13:27;;;;;;;69.20;32.75;;;;;;;4.02;78.54;98590.97;4894816;29;20048;-38
2021/11/26 16:15:52;;;;;;;84.82;34.25;;;;;;;4.08;79.25;98569.16;4895008;29;20024;-37
2021/11/26 16:18:17;;;;;;;78.80;32.97;;;;;;;4.18;78.69;98564.34;4895079;29;20446;-39
2021/11/26 16:20:43;;;;;;;73.88;33.33;;;;;;;4.22;78.44;98575.31;4895164;29;20036;-38
2021/11/26 16:23:08;;;;;;;68.72;33.15;;;;;;;4.30;78.12;98547.03;4895038;29;20021;-38
2021/11/26 16:25:35;;;;;;;67.85;32.63;;;;;;;4.20;77.64;98538.66;4894632;29;20036;-37
2021/11/26 16:28:01;;;;;;;70.85;31.55;;;;;;;4.38;77.54;98582.13;4880838;29;20024;-37
2021/11/26 16:30:27;;;;;;;67.85;32.53;;;;;;;4.50;77.46;98593.78;4897024;29;20083;-38
2021/11/26 16:33:19;;;;;;;69.28;32.35;;;;;;;4.30;78.03;98617.31;4898628;29;20048;-38
2021/11/26 16:35:41;;;;;;;74.53;34.15;;;;;;;4.24;78.83;98578.59;4895603;29;20067;-38
2021/11/26 16:38:07;;;;;;;79.03;38.58;;;;;;;4.60;78.14;98544.16;4880482;29;20032;-38
2021/11/26 16:40:33;;;;;;;88.50;43.47;;;;;;;4.55;79.00;98569.47;4884060;29;20017;-38
2021/11/26 16:42:58;;;;;;;68.40;31.30;;;;;;;4.67;77.79;98560.84;4898045;29;20044;-38
2021/11/26 16:45:24;;;;;;;70.05;33.55;;;;;;;4.58;77.07;98559.38;4890823;29;20036;-38
2021/11/26 16:47:50;;;;;;;93.05;43.17;;;;;;;4.70;77.17;98544.66;4880307;29;20388;-36
2021/11/26 16:50:16;;;;;;;78.70;35.42;;;;;;;4.61;77.61;98552.91;4880194;29;20116;-38
2021/11/26 16:52:41;;;;;;;64.57;32.65;;;;;;;4.89;76.60;98537.84;4880158;29;20021;-38
2021/11/26 16:55:07;;;;;;;69.90;35.33;;;;;;;5.02;77.30;98552.09;4879796;29;20021;-37
2021/11/26 16:57:32;;;;;;;132.43;63.92;;;;;;;5.64;80.74;98540.50;4878733;29;20036;-38
2021/11/26 16:59:58;;;;;;;70.32;32.60;;;;;;;5.61;74.71;98524.25;4879501;29;20040;-37
2021/11/26 17:02:23;;;;;;;65.55;32.35;;;;;;;5.42;74.80;98550.38;4879514;29;20039;-38
2021/11/26 17:04:49;;;;;;;62.78;31.88;;;;;;;5.25;74.39;98580.78;4884251;29;20035;-38
2021/11/26 17:07:15;;;;;;;68.00;31.65;;;;;;;4.96;75.45;98582.69;4878168;29;20485;-38
2021/11/26 17:09:40;;;;;;;64.80;31.25;;;;;;;4.71;76.31;98587.63;4897842;29;20024;-38
2021/11/26 17:12:06;;;;;;;67.88;30.20;;;;;;;4.70;76.92;98573.63;4897803;29;20430;-38
2021/11/26 17:14:32;;;;;;;61.92;30.40;;;;;;;4.44;77.27;98589.28;4898552;29;20016;-39
2021/11/26 17:16:57;;;;;;;70.75;33.50;;;;;;;4.52;77.52;98591.75;4890111;29;20040;-37
2021/11/26 17:19:23;;;;;;;67.13;32.20;;;;;;;4.80;76.06;98593.56;4894014;29;20478;-37
2021/11/26 17:21:48;;;;;;;56.20;27.63;;;;;;;4.80;75.91;98580.38;4890188;29;20095;-37
2021/11/26 17:24:14;;;;;;;55.88;27.13;;;;;;;4.70;76.36;98589.47;4890779;29;20020;-38
2021/11/26 17:26:39;;;;;;;59.50;28.30;;;;;;;4.93;75.64;98574.34;4890316;29;20084;-38
2021/11/26 17:29:05;;;;;;;56.63;27.50;;;;;;;4.88;75.72;98603.94;4889787;29;20024;-38
2021/11/26 17:31:31;;;;;;;57.75;27.25;;;;;;;4.72;76.39;98612.97;4891060;29;20365;-38
2021/11/26 17:33:56;;;;;;;70.05;32.88;;;;;;;4.85;76.25;98615.66;4888432;29;20055;-37
2021/11/26 17:36:22;;;;;;;66.85;31.13;;;;;;;4.62;77.29;98601.97;4900769;29;20133;-38
2021/11/26 17:38:47;;;;;;;63.05;32.00;;;;;;;4.75;77.47;98578.31;4896504;29;20024;-37
2021/11/26 17:41:13;;;;;;;59.08;29.38;;;;;;;5.05;75.34;98564.88;4896689;29;20024;-37
2021/11/26 17:43:39;;;;;;;58.67;27.38;;;;;;;5.00;75.10;98565.47;4896797;29;20024;-38
2021/11/26 17:46:04;;;;;;;58.88;28.58;;;;;;;4.74;75.99;98547.72;4897209;29;20056;-38
2021/11/26 17:48:30;;;;;;;63.53;28.08;;;;;;;4.86;75.96;98561.16;4897154;29;20140;-38
2021/11/26 17:50:56;;;;;;;55.38;28.17;;;;;;;4.74;75.95;98560.88;4888951;29;20492;-37
2021/11/26 17:53:23;;;;;;;64.32;30.88;;;;;;;4.68;76.39;98566.91;4870324;29;20504;-38
2021/11/26 17:55:48;;;;;;;71.22;35.53;;;;;;;4.75;78.45;98586.22;4885991;29;20425;-39
2021/11/26 17:58:14;;;;;;;73.38;36.63;;;;;;;5.20;76.94;98570.03;4888533;29;20028;-38
2021/11/26 18:00:42;;;;;;;73.53;35.20;;;;;;;5.44;74.62;98560.75;4885303;29;20441;-38
2021/11/26 18:03:07;;;;;;;72.57;36.20;;;;;;;5.34;74.34;98563.78;4885860;29;20052;-37
2021/11/26 18:05:43;;;;;;;70.57;33.75;;;;;;;5.06;75.00;98575.25;4888570;29;20466;-39
2021/11/26 18:08:10;;;;;;;71.55;33.83;;;;;;;5.07;75.42;98584.78;4888165;29;20025;-39
2021/11/26 18:10:43;;;;;;;60.30;30.83;;;;;;;5.22;75.18;98594.38;4890286;29;20032;-39
2021/11/26 18:13:09;;;;;;;69.90;32.05;;;;;;;5.18;75.26;98603.66;4888468;29;20494;-39
2021/11/26 18:15:39;;;;;;;71.03;33.17;;;;;;;5.09;75.37;98580.09;4886331;29;20142;-38
2021/11/26 18:18:06;;;;;;;70.95;32.28;;;;;;;5.23;74.99;98574.88;4886488;29;20029;-41
2021/11/26 18:20:32;;;;;;;64.70;31.27;;;;;;;5.17;75.15;98567.78;4889064;29;20028;-39
2021/11/26 18:22:57;;;;;;;68.53;32.10;;;;;;;4.87;75.92;98575.94;4887089;29;20099;-38
2021/11/26 18:25:23;;;;;;;65.97;30.35;;;;;;;4.96;75.51;98601.16;4885385;29;20036;-39
2021/11/26 18:27:48;;;;;;;68.85;29.27;;;;;;;4.86;76.48;98604.13;4890949;29;20099;-39
2021/11/26 18:30:15;;;;;;;66.18;31.65;;;;;;;5.08;75.99;98589.06;4894269;29;20028;-38
2021/11/26 18:32:40;;;;;;;64.45;32.03;;;;;;;7.16;73.51;98600.53;4896095;29;20116;-38
2021/11/26 18:35:07;;;;;;;63.50;32.22;;;;;;;6.24;71.12;98600.50;4896632;29;20025;-49
2021/11/26 18:37:32;;;;;;;69.13;32.00;;;;;;;5.95;71.76;98604.31;4896792;29;20108;-50
2021/11/26 18:39:59;;;;;;;71.03;34.90;;;;;;;5.77;72.99;98613.63;4871320;29;20025;-47
2021/11/26 18:42:26;;;;;;;68.57;33.95;;;;;;;5.27;74.80;98610.41;4886172;29;20029;-50
2021/11/26 18:44:52;;;;;;;74.72;34.58;;;;;;;5.27;76.87;98608.59;4886758;29;20020;-51
2021/11/26 18:47:18;;;;;;;66.70;33.58;;;;;;;5.17;75.44;98597.59;4887471;29;20020;-49
2021/11/26 18:49:43;;;;;;;100.35;47.92;;;;;;;5.27;77.44;98620.97;4885911;29;20537;-49
2021/11/26 18:52:09;;;;;;;129.95;60.00;;;;;;;5.48;77.88;98615.59;4885781;29;20025;-50
2021/11/26 18:54:37;;;;;;;68.55;33.90;;;;;;;5.51;75.40;98622.28;4886378;29;20020;-50
2021/11/26 18:57:03;;;;;;;65.53;33.00;;;;;;;5.43;74.76;98628.56;4887392;29;20493;-47
2021/11/26 18:59:28;;;;;;;72.47;31.55;;;;;;;5.38;75.26;98638.06;4885421;29;20024;-50
2021/11/26 19:01:54;;;;;;;64.03;32.17;;;;;;;5.26;75.63;98629.91;4879020;29;20036;-50
2021/11/26 19:04:19;;;;;;;57.63;30.50;;;;;;;5.34;75.79;98640.28;4877378;29;20025;-49
2021/11/26 19:06:45;;;;;;;66.13;30.90;;;;;;;5.18;76.22;98636.16;4877266;29;20029;-49
2021/11/26 19:09:13;;;;;;;66.13;31.77;;;;;;;5.32;76.01;98623.03;4878494;29;20083;-49
2021/11/26 19:11:39;;;;;;;89.60;42.85;;;;;;;5.16;76.87;98617.09;4888382;29;20141;-49
2021/11/26 19:14:05;;;;;;;68.78;34.22;;;;;;;5.33;76.53;98617.56;4895704;29;20028;-49
2021/11/26 19:16:30;;;;;;;69.95;33.50;;;;;;;5.24;75.79;98622.19;4894773;29;20107;-50
2021/11/26 19:18:56;;;;;;;69.35;33.28;;;;;;;5.20;76.29;98606.94;4894630;29;20036;-49
2021/11/26 19:21:21;;;;;;;68.05;33.33;;;;;;;5.10;76.55;98615.19;4895410;29;20111;-51
2021/11/26 19:23:47;;;;;;;63.00;32.15;;;;;;;5.12;77.04;98615.00;4895398;29;20031;-47
2021/11/26 19:26:13;;;;;;;65.60;32.08;;;;;;;5.06;76.82;98609.53;4895064;29;20028;-52
2021/11/26 19:28:38;;;;;;;65.57;31.40;;;;;;;5.01;77.09;98606.66;4878656;29;20056;-47
2021/11/26 19:31:04;;;;;;;67.75;34.38;;;;;;;4.92;78.22;98596.47;4895122;29;20049;-46
2021/11/26 19:33:31;;;;;;;69.93;34.08;;;;;;;5.17;77.86;98616.06;4894951;29;20629;-48
2021/11/26 19:35:57;;;;;;;72.50;32.22;;;;;;;5.05;77.28;98615.78;4895230;29;20059;-47
2021/11/26 19:38:22;;;;;;;67.68;32.70;;;;;;;4.92;77.67;98593.84;4895279;29;20047;-48
2021/11/26 19:40:48;;;;;;;69.00;32.42;;;;;;;5.07;77.17;98591.88;4894991;29;20025;-48
2021/11/26 19:43:14;;;;;;;64.93;32.30;;;;;;;4.86;78.45;98603.31;4894738;29;20020;-50
2021/11/26 19:45:40;;;;;;;62.15;31.40;;;;;;;5.13;77.26;98606.91;4895041;29;20031;-48
2021/11/26 19:48:06;;;;;;;63.25;31.42;;;;;;;5.13;77.26;98596.34;4894751;29;20036;-50
2021/11/26 19:50:32;;;;;;;67.40;33.08;;;;;;;5.19;77.52;98600.03;4894918;29;20072;-48
2021/11/26 19:52:58;;;;;;;65.35;31.55;;;;;;;5.27;76.89;98597.22;4894805;29;20033;-49
2021/11/26 19:55:25;;;;;;;67.13;31.15;;;;;;;5.20;77.04;98597.22;4895098;29;20397;-47
2021/11/26 19:57:52;;;;;;;73.30;34.05;;;;;;;4.85;78.37;98609.59;4894449;29;20078;-51
2021/11/26 20:00:21;;;;;;;67.25;32.60;;;;;;;5.20;77.53;98594.56;4895319;29;20071;-49
2021/11/26 20:02:46;;;;;;;66.40;33.05;;;;;;;5.11;78.25;98587.03;4894522;29;20111;-50
2021/11/26 20:05:12;;;;;;;91.45;45.22;;;;;;;4.98;78.70;98577.22;4894967;29;20458;-48
2021/11/26 20:07:38;;;;;;;110.47;53.85;;;;;;;5.03;79.46;98570.34;4895238;29;20522;-50
2021/11/26 20:10:04;;;;;;;68.30;31.13;;;;;;;5.08;78.74;98582.94;4894983;29;20033;-47
2021/11/26 20:12:30;;;;;;;66.22;31.92;;;;;;;5.21;78.54;98576.91;4894912;29;20028;-50
2021/11/26 20:14:56;;;;;;;58.10;28.85;;;;;;;5.24;78.37;98568.63;4895395;29;20036;-50
2021/11/26 20:17:24;;;;;;;60.15;28.88;;;;;;;5.24;78.50;98568.63;4895291;29;20529;-50
2021/11/26 20:19:50;;;;;;;63.55;29.90;;;;;;;5.48;78.05;98570.72;4893696;29;20552;-50
2021/11/26 20:22:15;;;;;;;59.58;29.65;;;;;;;5.68;77.79;98560.19;4892595;29;20152;-50
2021/11/26 20:24:41;;;;;;;59.92;29.38;;;;;;;5.63;77.52;98564.44;4893899;29;20080;-48
2021/11/26 20:27:06;;;;;;;56.53;29.00;;;;;;;5.55;77.92;98568.09;4879312;29;20037;-49
2021/11/26 20:29:32;;;;;;;58.45;28.55;;;;;;;5.66;77.71;98564.88;4875185;29;20123;-49
2021/11/26 20:31:57;;;;;;;58.63;28.50;;;;;;;5.51;78.41;98566.06;4874995;29;20048;-46
2021/11/26 20:34:25;;;;;;;60.90;28.08;;;;;;;5.69;77.82;98576.84;4875250;29;20041;-48
2021/11/26 20:36:51;;;;;;;52.92;27.70;;;;;;;5.70;77.17;98573.19;4890930;29;20036;-47
2021/11/26 20:39:17;;;;;;;61.47;28.13;;;;;;;5.73;77.97;98593.94;4893940;29;20060;-49
2021/11/26 20:41:43;;;;;;;57.05;28.42;;;;;;;5.93;77.68;98607.16;4893686;29;20025;-47
2021/11/26 20:44:10;;;;;;;55.38;28.25;;;;;;;5.92;77.96;98586.22;4893797;29;20036;-49
2021/11/26 20:46:37;;;;;;;60.97;28.55;;;;;;;6.62;75.80;98586.66;4894129;29;20097;-48
2021/11/26 20:49:03;;;;;;;53.00;28.10;;;;;;;6.71;75.94;98587.25;4893622;29;20063;-48
2021/11/26 20:51:29;;;;;;;54.17;27.38;;;;;;;6.34;76.68;98590.34;4894192;29;20099;-51
2021/11/26 20:53:54;;;;;;;56.13;27.70;;;;;;;6.05;77.66;98595.03;4861493;29;20029;-51
2021/11/26 20:56:20;;;;;;;65.82;34.15;;;;;;;6.08;78.35;98604.34;4893652;29;20025;-50
2021/11/26 20:58:45;;;;;;;140.85;70.93;;;;;;;6.13;78.87;98615.16;4894204;29;20029;-51
2021/11/26 21:01:11;;;;;;;54.75;28.40;;;;;;;6.40;77.13;98617.78;4883849;29;20093;-50
2021/11/26 21:03:36;;;;;;;54.13;26.13;;;;;;;6.19;77.21;98616.97;4874812;29;20378;-48
2021/11/26 21:06:02;;;;;;;51.45;27.02;;;;;;;6.16;78.31;98612.09;4873920;29;20411;-49
2021/11/26 21:08:27;;;;;;;51.75;27.30;;;;;;;6.73;77.17;98627.53;4877713;29;20386;-50
2021/11/26 21:10:54;;;;;;;55.35;28.08;;;;;;;6.98;75.26;98627.66;4892389;29;20084;-49
2021/11/26 21:13:19;;;;;;;55.13;27.73;;;;;;;6.88;75.43;98624.66;4894640;29;20036;-52
2021/11/26 21:15:46;;;;;;;50.97;27.17;;;;;;;6.74;75.60;98647.63;4896504;29;20040;-51